Contoocook River @ Henniker, Nh

Contoocook River at Henniker
 Total Drainage Area: 368 sq. miles 
 Drainage Area Controlled by Corps Dams: 44 sq. miles (12%) 
 Warning Flow/Stage: 2,230 cfs / 9.0 feet 
 Flood Flow/Stage: 6,170 cfs / 11.5 feet 
Date Time
(Eastern)
Stage
(ft)
Flow
(cfs)
CSM
(cfs / sq. mi.)
Feb-26 01:30 am 6.51 526 1.4
Feb-26 12:30 am 6.52 530 1.4
Feb-25 11:30 pm 6.54 539 1.5
Feb-25 10:30 pm 6.54 539 1.5
Feb-25 09:30 pm 6.55 543 1.5
Feb-25 08:30 pm 6.56 547 1.5
Feb-25 07:30 pm 6.56 547 1.5
Feb-25 06:30 pm 6.59 559 1.5
Feb-25 05:30 pm 6.59 559 1.5
Feb-25 04:30 pm 6.60 563 1.5
Feb-25 03:30 pm 6.59 559 1.5
Feb-25 02:30 pm 6.56 547 1.5
Feb-25 01:30 pm 6.52 530 1.4
Feb-25 12:30 pm 6.51 526 1.4
Feb-25 11:30 am 6.51 526 1.4
Feb-25 10:30 am 6.52 530 1.4
Feb-25 09:30 am 6.54 539 1.5
Feb-25 08:30 am 6.54 539 1.5
Feb-25 07:30 am 6.55 543 1.5
Feb-25 06:30 am 6.54 539 1.5
Feb-25 05:30 am 6.57 551 1.5
Feb-25 04:30 am 6.59 559 1.5
Feb-25 03:30 am 6.59 559 1.5
Feb-25 02:30 am 6.59 559 1.5
Feb-25 01:30 am 6.61 568 1.5
Report Generated February 26, 2024 01:56 am